PWSweather.com
Personal Weather Stations
Station Observations
WXGLH1124
Southern Oaks, Indianapolis, IN 46217

Southern OaksIndianapolis, IN 46217

Lat: 39.65113, Lon: -86.16866

Elevation: 720

Station Type: Vantage Pro2

High Low Average
Temperature 62.2°F16.8°C 38.4°F3.6°C 47.7°F8.7°C
Dew Point 59.1°F15.1°C 31.8°F-0.1°C 44.5°F6.9°C
Winds 15.0 mph 24.1 kmh Calm Calm 2.0 mph SSE3.2 kmh SSE
Wind Gusts 24.0 mph38.6 kmh -- 5.0 mph8.0 kmh
Humidity 93% 74% 89%
Pressure 30.10 in1019.3 mb 29.51 in999.3 mb -
Precipitation 0.00 in0.0 mm - -
Hour Temp Dew Point Humidity Winds Wind Gusts Pressure Precip Precip Rate Daily Precip Total
12:00 AM 38.2°F3.4°C 31.3°F-0.4°C 76% 1.0 mph S1.6 kmh S 4.0 mph6.4 kmh 30.11 in1019.6 mb 0.00 in0.0 mm 0.00 in0.0 mm 0.00 in0.0 mm
12:05 AM 38.3°F3.5°C 31.4°F-0.3°C 76% 3.0 mph S4.8 kmh S 4.0 mph6.4 kmh 30.11 in1019.6 mb 0.00 in0.0 mm 0.00 in0.0 mm 0.00 in0.0 mm
12:10 AM 38.4°F3.6°C 31.5°F-0.3°C 76% Calm Calm 3.0 mph4.8 kmh 30.11 in1019.6 mb 0.00 in0.0 mm 0.00 in0.0 mm 0.00 in0.0 mm
12:15 AM 38.4°F3.6°C 31.5°F-0.3°C 76% Calm Calm 2.0 mph3.2 kmh 30.11 in1019.6 mb 0.00 in0.0 mm 0.00 in0.0 mm 0.00 in0.0 mm
12:20 AM 38.4°F3.6°C 31.5°F-0.3°C 76% 3.0 mph S4.8 kmh S 3.0 mph4.8 kmh 30.10 in1019.3 mb 0.00 in0.0 mm 0.00 in0.0 mm 0.00 in0.0 mm
12:25 AM 38.4°F3.6°C 31.5°F-0.3°C 76% 2.0 mph S3.2 kmh S 3.0 mph4.8 kmh 30.11 in1019.6 mb 0.00 in0.0 mm 0.00 in0.0 mm 0.00 in0.0 mm
12:30 AM 38.4°F3.6°C 31.5°F-0.3°C 76% 2.0 mph S3.2 kmh S 3.0 mph4.8 kmh 30.11 in1019.6 mb 0.00 in0.0 mm 0.00 in0.0 mm 0.00 in0.0 mm
12:34 AM 38.4°F3.6°C 31.8°F-0.1°C 77% Calm Calm 1.0 mph1.6 kmh 30.10 in1019.3 mb 0.00 in0.0 mm 0.00 in0.0 mm 0.00 in0.0 mm
12:40 AM 38.4°F3.6°C 31.8°F-0.1°C 77% 2.0 mph S3.2 kmh S 3.0 mph4.8 kmh 30.10 in1019.3 mb 0.00 in0.0 mm 0.00 in0.0 mm 0.00 in0.0 mm
12:45 AM 38.4°F3.6°C 31.8°F-0.1°C 77% Calm Calm 3.0 mph4.8 kmh 30.10 in1019.3 mb 0.00 in0.0 mm 0.00 in0.0 mm 0.00 in0.0 mm
12:50 AM 38.4°F3.6°C 31.8°F-0.1°C 77% Calm Calm 3.0 mph4.8 kmh 30.10 in1019.3 mb 0.00 in0.0 mm 0.00 in0.0 mm 0.00 in0.0 mm
12:55 AM 38.4°F3.6°C 31.8°F-0.1°C 77% 2.0 mph S3.2 kmh S 3.0 mph4.8 kmh 30.10 in1019.3 mb 0.00 in0.0 mm 0.00 in0.0 mm 0.00 in0.0 mm
01:00 AM 38.4°F3.6°C 31.8°F-0.1°C 77% 1.0 mph S1.6 kmh S 2.0 mph3.2 kmh 30.10 in1019.3 mb 0.00 in0.0 mm 0.00 in0.0 mm 0.00 in0.0 mm
01:04 AM 38.5°F3.6°C 31.9°F-0.1°C 77% 2.0 mph S3.2 kmh S 3.0 mph4.8 kmh 30.10 in1019.3 mb 0.00 in0.0 mm 0.00 in0.0 mm 0.00 in0.0 mm
01:10 AM 38.6°F3.7°C 32.0°F0.0°C 77% Calm Calm 3.0 mph4.8 kmh 30.10 in1019.3 mb 0.00 in0.0 mm 0.00 in0.0 mm 0.00 in0.0 mm
01:15 AM 38.6°F3.7°C 32.0°F0.0°C 77% 1.0 mph S1.6 kmh S 3.0 mph4.8 kmh 30.10 in1019.3 mb 0.00 in0.0 mm 0.00 in0.0 mm 0.00 in0.0 mm
01:20 AM 38.7°F3.7°C 32.1°F0.1°C 77% Calm Calm 3.0 mph4.8 kmh 30.10 in1019.3 mb 0.00 in0.0 mm 0.00 in0.0 mm 0.00 in0.0 mm
01:25 AM 38.8°F3.8°C 32.2°F0.1°C 77% Calm Calm 1.0 mph1.6 kmh 30.09 in1019.0 mb 0.00 in0.0 mm 0.00 in0.0 mm 0.00 in0.0 mm
01:30 AM 38.8°F3.8°C 32.2°F0.1°C 77% 1.0 mph S1.6 kmh S 3.0 mph4.8 kmh 30.09 in1019.0 mb 0.00 in0.0 mm 0.00 in0.0 mm 0.00 in0.0 mm
01:35 AM 38.9°F3.8°C 32.3°F0.2°C 77% 2.0 mph S3.2 kmh S 3.0 mph4.8 kmh 30.08 in1018.6 mb 0.00 in0.0 mm 0.00 in0.0 mm 0.00 in0.0 mm
01:39 AM 39.0°F3.9°C 32.4°F0.2°C 77% 1.0 mph S1.6 kmh S 4.0 mph6.4 kmh 30.08 in1018.6 mb 0.00 in0.0 mm 0.00 in0.0 mm 0.00 in0.0 mm
01:44 AM 39.1°F3.9°C 32.2°F0.1°C 76% Calm Calm 2.0 mph3.2 kmh 30.08 in1018.6 mb 0.00 in0.0 mm 0.00 in0.0 mm 0.00 in0.0 mm
01:50 AM 39.2°F4.0°C 32.3°F0.2°C 76% Calm Calm 3.0 mph4.8 kmh 30.08 in1018.6 mb 0.00 in0.0 mm 0.00 in0.0 mm 0.00 in0.0 mm
01:55 AM 39.2°F4.0°C 32.6°F0.3°C 77% Calm Calm -- 30.07 in1018.3 mb 0.00 in0.0 mm 0.00 in0.0 mm 0.00 in0.0 mm
02:00 AM 39.3°F4.1°C 32.7°F0.4°C 77% Calm Calm -- 30.06 in1017.9 mb 0.00 in0.0 mm 0.00 in0.0 mm 0.00 in0.0 mm
02:05 AM 39.3°F4.1°C 32.7°F0.4°C 77% Calm Calm -- 30.06 in1017.9 mb 0.00 in0.0 mm 0.00 in0.0 mm 0.00 in0.0 mm
02:10 AM 39.3°F4.1°C 32.7°F0.4°C 77% Calm Calm 2.0 mph3.2 kmh 30.06 in1017.9 mb 0.00 in0.0 mm 0.00 in0.0 mm 0.00 in0.0 mm
02:15 AM 39.3°F4.1°C 32.7°F0.4°C 77% Calm Calm 1.0 mph1.6 kmh 30.06 in1017.9 mb 0.00 in0.0 mm 0.00 in0.0 mm 0.00 in0.0 mm
02:20 AM 39.4°F4.1°C 32.8°F0.4°C 77% Calm Calm -- 30.05 in1017.6 mb 0.00 in0.0 mm 0.00 in0.0 mm 0.00 in0.0 mm
02:25 AM 39.4°F4.1°C 32.8°F0.4°C 77% Calm Calm 1.0 mph1.6 kmh 30.06 in1017.9 mb 0.00 in0.0 mm 0.00 in0.0 mm 0.00 in0.0 mm
02:30 AM 39.5°F4.2°C 32.9°F0.5°C 77% Calm Calm 2.0 mph3.2 kmh 30.06 in1017.9 mb 0.00 in0.0 mm 0.00 in0.0 mm 0.00 in0.0 mm
02:35 AM 39.6°F4.2°C 33.0°F0.6°C 77% Calm Calm 1.0 mph1.6 kmh 30.06 in1017.9 mb 0.00 in0.0 mm 0.00 in0.0 mm 0.00 in0.0 mm
02:40 AM 39.7°F4.3°C 32.8°F0.4°C 76% Calm Calm -- 30.06 in1017.9 mb 0.00 in0.0 mm 0.00 in0.0 mm 0.00 in0.0 mm
02:45 AM 39.8°F4.3°C 32.9°F0.5°C 76% Calm Calm 1.0 mph1.6 kmh 30.06 in1017.9 mb 0.00 in0.0 mm 0.00 in0.0 mm 0.00 in0.0 mm
02:50 AM 39.9°F4.4°C 33.0°F0.6°C 76% 4.0 mph S6.4 kmh S 4.0 mph6.4 kmh 30.05 in1017.6 mb 0.00 in0.0 mm 0.00 in0.0 mm 0.00 in0.0 mm
02:55 AM 40.0°F4.4°C 33.1°F0.6°C 76% Calm Calm 2.0 mph3.2 kmh 30.05 in1017.6 mb 0.00 in0.0 mm 0.00 in0.0 mm 0.00 in0.0 mm
02:59 AM 40.1°F4.5°C 33.2°F0.7°C 76% 1.0 mph S1.6 kmh S 2.0 mph3.2 kmh 30.05 in1017.6 mb 0.00 in0.0 mm 0.00 in0.0 mm 0.00 in0.0 mm
03:05 AM 40.2°F4.6°C 32.9°F0.5°C 75% Calm Calm 2.0 mph3.2 kmh 30.05 in1017.6 mb 0.00 in0.0 mm 0.00 in0.0 mm 0.00 in0.0 mm
03:10 AM 40.3°F4.6°C 33.0°F0.6°C 75% 4.0 mph SSE6.4 kmh SSE 4.0 mph6.4 kmh 30.05 in1017.6 mb 0.00 in0.0 mm 0.00 in0.0 mm 0.00 in0.0 mm
03:15 AM 40.4°F4.7°C 33.1°F0.6°C 75% 1.0 mph SSE1.6 kmh SSE 6.0 mph9.7 kmh 30.05 in1017.6 mb 0.00 in0.0 mm 0.00 in0.0 mm 0.00 in0.0 mm
03:20 AM 40.5°F4.7°C 33.2°F0.7°C 75% Calm Calm 5.0 mph8.0 kmh 30.06 in1017.9 mb 0.00 in0.0 mm 0.00 in0.0 mm 0.00 in0.0 mm
03:25 AM 40.7°F4.8°C 33.4°F0.8°C 75% 2.0 mph S3.2 kmh S 4.0 mph6.4 kmh 30.06 in1017.9 mb 0.00 in0.0 mm 0.00 in0.0 mm 0.00 in0.0 mm
03:29 AM 40.8°F4.9°C 33.5°F0.8°C 75% 2.0 mph S3.2 kmh S 5.0 mph8.0 kmh 30.06 in1017.9 mb 0.00 in0.0 mm 0.00 in0.0 mm 0.00 in0.0 mm
03:35 AM 40.9°F4.9°C 33.6°F0.9°C 75% 3.0 mph S4.8 kmh S 5.0 mph8.0 kmh 30.05 in1017.6 mb 0.00 in0.0 mm 0.00 in0.0 mm 0.00 in0.0 mm
03:40 AM 41.0°F5.0°C 33.7°F0.9°C 75% 3.0 mph S4.8 kmh S 4.0 mph6.4 kmh 30.06 in1017.9 mb 0.00 in0.0 mm 0.00 in0.0 mm 0.00 in0.0 mm
03:45 AM 41.1°F5.1°C 33.8°F1.0°C 75% Calm Calm 4.0 mph6.4 kmh 30.06 in1017.9 mb 0.00 in0.0 mm 0.00 in0.0 mm 0.00 in0.0 mm
03:50 AM 41.3°F5.2°C 33.7°F0.9°C 74% 3.0 mph S4.8 kmh S 4.0 mph6.4 kmh 30.05 in1017.6 mb 0.00 in0.0 mm 0.00 in0.0 mm 0.00 in0.0 mm
03:54 AM 41.5°F5.3°C 33.8°F1.0°C 74% Calm Calm 6.0 mph9.7 kmh 30.06 in1017.9 mb 0.00 in0.0 mm 0.00 in0.0 mm 0.00 in0.0 mm
04:00 AM 41.6°F5.3°C 33.9°F1.1°C 74% Calm Calm 6.0 mph9.7 kmh 30.06 in1017.9 mb 0.00 in0.0 mm 0.00 in0.0 mm 0.00 in0.0 mm
04:05 AM 41.6°F5.3°C 34.3°F1.3°C 75% Calm Calm 3.0 mph4.8 kmh 30.06 in1017.9 mb 0.00 in0.0 mm 0.00 in0.0 mm 0.00 in0.0 mm
04:10 AM 41.5°F5.3°C 34.8°F1.6°C 77% Calm Calm 1.0 mph1.6 kmh 30.06 in1017.9 mb 0.00 in0.0 mm 0.00 in0.0 mm 0.00 in0.0 mm
04:15 AM 41.4°F5.2°C 35.1°F1.7°C 78% Calm Calm 2.0 mph3.2 kmh 30.06 in1017.9 mb 0.00 in0.0 mm 0.00 in0.0 mm 0.00 in0.0 mm
04:20 AM 41.3°F5.2°C 35.6°F2.0°C 80% Calm Calm -- 30.06 in1017.9 mb 0.01 in0.3 mm 0.12 in3.0 mm 0.01 in0.3 mm
04:25 AM 41.1°F5.1°C 36.0°F2.2°C 82% 1.0 mph SSE1.6 kmh SSE 3.0 mph4.8 kmh 30.06 in1017.9 mb 0.01 in0.3 mm 0.00 in0.0 mm 0.01 in0.3 mm
04:30 AM 41.0°F5.0°C 35.9°F2.2°C 82% Calm Calm 1.0 mph1.6 kmh 30.05 in1017.6 mb 0.01 in0.3 mm 0.00 in0.0 mm 0.01 in0.3 mm
04:35 AM 40.9°F4.9°C 36.5°F2.5°C 84% Calm Calm 2.0 mph3.2 kmh 30.05 in1017.6 mb 0.01 in0.3 mm 0.00 in0.0 mm 0.01 in0.3 mm
04:40 AM 40.7°F4.8°C 36.6°F2.6°C 85% Calm Calm -- 30.04 in1017.3 mb 0.02 in0.5 mm 0.12 in3.0 mm 0.02 in0.5 mm
04:44 AM 40.6°F4.8°C 36.5°F2.5°C 85% 1.0 mph SSE1.6 kmh SSE 2.0 mph3.2 kmh 30.04 in1017.3 mb 0.02 in0.5 mm 0.00 in0.0 mm 0.02 in0.5 mm
04:50 AM 40.5°F4.7°C 36.7°F2.6°C 86% Calm Calm 1.0 mph1.6 kmh 30.04 in1017.3 mb 0.02 in0.5 mm 0.00 in0.0 mm 0.02 in0.5 mm
04:55 AM 40.4°F4.7°C 36.6°F2.6°C 86% Calm Calm 1.0 mph1.6 kmh 30.03 in1016.9 mb 0.03 in0.8 mm 0.12 in3.0 mm 0.03 in0.8 mm
05:00 AM 40.3°F4.6°C 36.8°F2.7°C 87% 1.0 mph SSE1.6 kmh SSE 1.0 mph1.6 kmh 30.03 in1016.9 mb 0.04 in1.0 mm 0.01 in0.3 mm 0.04 in1.0 mm
05:05 AM 40.2°F4.6°C 36.7°F2.6°C 87% Calm Calm 1.0 mph1.6 kmh 30.03 in1016.9 mb 0.04 in1.0 mm 0.00 in0.0 mm 0.04 in1.0 mm
05:10 AM 40.1°F4.5°C 36.6°F2.6°C 87% 1.0 mph SE1.6 kmh SE 3.0 mph4.8 kmh 30.03 in1016.9 mb 0.05 in1.3 mm 0.12 in3.0 mm 0.05 in1.3 mm
05:15 AM 40.0°F4.4°C 36.7°F2.6°C 88% 1.0 mph SE1.6 kmh SE 2.0 mph3.2 kmh 30.02 in1016.6 mb 0.06 in1.5 mm 0.12 in3.0 mm 0.06 in1.5 mm
05:20 AM 40.0°F4.4°C 36.7°F2.6°C 88% 2.0 mph SE3.2 kmh SE 2.0 mph3.2 kmh 30.02 in1016.6 mb 0.07 in1.8 mm 0.12 in3.0 mm 0.07 in1.8 mm
05:25 AM 39.9°F4.4°C 36.6°F2.6°C 88% Calm Calm 3.0 mph4.8 kmh 30.01 in1016.3 mb 0.06 in1.5 mm 0.00 in0.0 mm 0.07 in1.8 mm
05:29 AM 39.8°F4.3°C 36.8°F2.7°C 89% Calm Calm 2.0 mph3.2 kmh 30.01 in1016.3 mb 0.07 in1.8 mm 0.15 in3.8 mm 0.08 in2.0 mm
05:34 AM 39.8°F4.3°C 36.8°F2.7°C 89% Calm Calm 3.0 mph4.8 kmh 30.01 in1016.3 mb 0.07 in1.8 mm 0.00 in0.0 mm 0.08 in2.0 mm
05:40 AM 39.8°F4.3°C 36.8°F2.7°C 89% Calm Calm 3.0 mph4.8 kmh 30.01 in1016.3 mb 0.07 in1.8 mm 0.00 in0.0 mm 0.08 in2.0 mm
05:45 AM 39.8°F4.3°C 36.8°F2.7°C 89% Calm Calm 2.0 mph3.2 kmh 30.00 in1015.9 mb 0.07 in1.8 mm 0.00 in0.0 mm 0.08 in2.0 mm
05:50 AM 39.9°F4.4°C 37.2°F2.9°C 90% Calm Calm 1.0 mph1.6 kmh 30.00 in1015.9 mb 0.08 in2.0 mm 0.12 in3.0 mm 0.09 in2.3 mm
05:55 AM 39.9°F4.4°C 37.2°F2.9°C 90% Calm Calm 1.0 mph1.6 kmh 29.99 in1015.6 mb 0.08 in2.0 mm 0.00 in0.0 mm 0.09 in2.3 mm
05:59 AM 40.0°F4.4°C 37.3°F2.9°C 90% Calm Calm -- 29.99 in1015.6 mb 0.09 in2.3 mm 0.15 in3.8 mm 0.10 in2.5 mm
06:05 AM 40.0°F4.4°C 37.3°F2.9°C 90% Calm Calm -- 29.99 in1015.6 mb 0.10 in2.5 mm 0.01 in0.3 mm 0.11 in2.8 mm
06:10 AM 40.0°F4.4°C 37.3°F2.9°C 90% Calm Calm 1.0 mph1.6 kmh 29.99 in1015.6 mb 0.11 in2.8 mm 0.12 in3.0 mm 0.12 in3.0 mm
06:15 AM 40.1°F4.5°C 37.7°F3.2°C 91% Calm Calm -- 29.99 in1015.6 mb 0.11 in2.8 mm 0.00 in0.0 mm 0.12 in3.0 mm
06:19 AM 40.2°F4.6°C 37.8°F3.2°C 91% Calm Calm 1.0 mph1.6 kmh 29.98 in1015.2 mb 0.12 in3.0 mm 0.15 in3.8 mm 0.13 in3.3 mm
06:25 AM 40.3°F4.6°C 37.9°F3.3°C 91% Calm Calm -- 29.98 in1015.2 mb 0.12 in3.0 mm 0.00 in0.0 mm 0.13 in3.3 mm
06:29 AM 40.4°F4.7°C 38.0°F3.3°C 91% Calm Calm -- 29.98 in1015.2 mb 0.13 in3.3 mm 0.15 in3.8 mm 0.14 in3.6 mm
06:35 AM 40.4°F4.7°C 38.0°F3.3°C 91% Calm Calm -- 29.98 in1015.2 mb 0.14 in3.6 mm 0.10 in2.5 mm 0.15 in3.8 mm
06:40 AM 40.5°F4.7°C 38.1°F3.4°C 91% Calm Calm 1.0 mph1.6 kmh 29.97 in1014.9 mb 0.16 in4.1 mm 0.24 in6.1 mm 0.17 in4.3 mm
06:45 AM 40.5°F4.7°C 38.1°F3.4°C 91% Calm Calm 2.0 mph3.2 kmh 29.96 in1014.6 mb 0.17 in4.3 mm 0.12 in3.0 mm 0.18 in4.6 mm
06:50 AM 40.6°F4.8°C 38.2°F3.4°C 91% Calm Calm 2.0 mph3.2 kmh 29.95 in1014.2 mb 0.18 in4.6 mm 0.12 in3.0 mm 0.19 in4.8 mm
06:55 AM 40.7°F4.8°C 38.3°F3.5°C 91% 1.0 mph SE1.6 kmh SE 6.0 mph9.7 kmh 29.94 in1013.9 mb 0.19 in4.8 mm 0.12 in3.0 mm 0.20 in5.1 mm
06:59 AM 40.8°F4.9°C 38.7°F3.7°C 92% Calm Calm 2.0 mph3.2 kmh 29.93 in1013.5 mb 0.19 in4.8 mm 0.00 in0.0 mm 0.20 in5.1 mm
07:05 AM 41.0°F5.0°C 38.9°F3.8°C 92% Calm Calm 2.0 mph3.2 kmh 29.93 in1013.5 mb 0.20 in5.1 mm 0.01 in0.3 mm 0.21 in5.3 mm
07:09 AM 41.1°F5.1°C 39.0°F3.9°C 92% 1.0 mph ESE1.6 kmh ESE 2.0 mph3.2 kmh 29.93 in1013.5 mb 0.19 in4.8 mm 0.00 in0.0 mm 0.21 in5.3 mm
07:15 AM 41.2°F5.1°C 39.1°F3.9°C 92% Calm Calm 2.0 mph3.2 kmh 29.93 in1013.5 mb 0.20 in5.1 mm 0.10 in2.5 mm 0.22 in5.6 mm
07:20 AM 41.3°F5.2°C 39.2°F4.0°C 92% Calm Calm 4.0 mph6.4 kmh 29.93 in1013.5 mb 0.19 in4.8 mm 0.00 in0.0 mm 0.22 in5.6 mm
07:25 AM 41.4°F5.2°C 39.3°F4.1°C 92% Calm Calm 2.0 mph3.2 kmh 29.93 in1013.5 mb 0.19 in4.8 mm 0.00 in0.0 mm 0.22 in5.6 mm
07:30 AM 41.5°F5.3°C 39.4°F4.1°C 92% Calm Calm 1.0 mph1.6 kmh 29.92 in1013.2 mb 0.18 in4.6 mm 0.00 in0.0 mm 0.22 in5.6 mm
07:35 AM 41.6°F5.3°C 39.5°F4.2°C 92% 2.0 mph SE3.2 kmh SE 2.0 mph3.2 kmh 29.92 in1013.2 mb 0.17 in4.3 mm 0.00 in0.0 mm 0.22 in5.6 mm
07:40 AM 41.8°F5.4°C 39.7°F4.3°C 92% Calm Calm 2.0 mph3.2 kmh 29.93 in1013.5 mb 0.16 in4.1 mm 0.00 in0.0 mm 0.22 in5.6 mm
07:44 AM 42.0°F5.6°C 39.9°F4.4°C 92% Calm Calm 3.0 mph4.8 kmh 29.92 in1013.2 mb 0.15 in3.8 mm 0.00 in0.0 mm 0.22 in5.6 mm
07:50 AM 42.1°F5.6°C 40.0°F4.4°C 92% Calm Calm 1.0 mph1.6 kmh 29.92 in1013.2 mb 0.14 in3.6 mm 0.00 in0.0 mm 0.22 in5.6 mm
07:55 AM 42.2°F5.7°C 40.1°F4.5°C 92% Calm Calm 3.0 mph4.8 kmh 29.92 in1013.2 mb 0.12 in3.0 mm 0.00 in0.0 mm 0.22 in5.6 mm
08:00 AM 42.3°F5.7°C 40.2°F4.6°C 92% Calm Calm 6.0 mph9.7 kmh 29.91 in1012.9 mb 0.11 in2.8 mm 0.00 in0.0 mm 0.22 in5.6 mm
08:05 AM 42.4°F5.8°C 40.3°F4.6°C 92% Calm Calm 3.0 mph4.8 kmh 29.92 in1013.2 mb 0.11 in2.8 mm 0.00 in0.0 mm 0.22 in5.6 mm
08:10 AM 42.5°F5.8°C 40.3°F4.6°C 92% Calm Calm 3.0 mph4.8 kmh 29.92 in1013.2 mb 0.10 in2.5 mm 0.00 in0.0 mm 0.22 in5.6 mm
08:15 AM 42.6°F5.9°C 40.4°F4.7°C 92% Calm Calm 4.0 mph6.4 kmh 29.92 in1013.2 mb 0.09 in2.3 mm 0.00 in0.0 mm 0.22 in5.6 mm
08:20 AM 42.7°F5.9°C 40.5°F4.7°C 92% 1.0 mph ESE1.6 kmh ESE 2.0 mph3.2 kmh 29.92 in1013.2 mb 0.09 in2.3 mm 0.00 in0.0 mm 0.22 in5.6 mm
08:24 AM 42.8°F6.0°C 40.6°F4.8°C 92% 3.0 mph NE4.8 kmh NE 3.0 mph4.8 kmh 29.92 in1013.2 mb 0.08 in2.0 mm 0.00 in0.0 mm 0.22 in5.6 mm
08:29 AM 42.9°F6.1°C 40.7°F4.8°C 92% Calm Calm 3.0 mph4.8 kmh 29.92 in1013.2 mb 0.08 in2.0 mm 0.00 in0.0 mm 0.22 in5.6 mm
08:35 AM 42.9°F6.1°C 40.7°F4.8°C 92% Calm Calm 4.0 mph6.4 kmh 29.92 in1013.2 mb 0.07 in1.8 mm 0.00 in0.0 mm 0.22 in5.6 mm
08:40 AM 43.0°F6.1°C 41.1°F5.1°C 93% 1.0 mph SE1.6 kmh SE 2.0 mph3.2 kmh 29.92 in1013.2 mb 0.08 in2.0 mm 0.12 in3.0 mm 0.23 in5.8 mm
08:45 AM 43.1°F6.2°C 41.2°F5.1°C 93% 3.0 mph SE4.8 kmh SE 5.0 mph8.0 kmh 29.92 in1013.2 mb 0.07 in1.8 mm 0.00 in0.0 mm 0.23 in5.8 mm
08:49 AM 43.2°F6.2°C 41.3°F5.2°C 93% Calm Calm 3.0 mph4.8 kmh 29.91 in1012.9 mb 0.07 in1.8 mm 0.00 in0.0 mm 0.23 in5.8 mm
08:55 AM 43.3°F6.3°C 41.1°F5.1°C 92% Calm Calm 2.0 mph3.2 kmh 29.91 in1012.9 mb 0.08 in2.0 mm 0.10 in2.5 mm 0.24 in6.1 mm
09:00 AM 43.4°F6.3°C 41.2°F5.1°C 92% Calm Calm 5.0 mph8.0 kmh 29.90 in1012.5 mb 0.08 in2.0 mm 0.00 in0.0 mm 0.24 in6.1 mm
09:05 AM 43.5°F6.4°C 41.3°F5.2°C 92% 2.0 mph SE3.2 kmh SE 4.0 mph6.4 kmh 29.90 in1012.5 mb 0.08 in2.0 mm 0.00 in0.0 mm 0.24 in6.1 mm
09:10 AM 43.5°F6.4°C 41.3°F5.2°C 92% 1.0 mph SE1.6 kmh SE 4.0 mph6.4 kmh 29.90 in1012.5 mb 0.07 in1.8 mm 0.00 in0.0 mm 0.24 in6.1 mm
09:15 AM 43.6°F6.4°C 41.4°F5.2°C 92% 3.0 mph SSE4.8 kmh SSE 9.0 mph14.5 kmh 29.90 in1012.5 mb 0.06 in1.5 mm 0.00 in0.0 mm 0.24 in6.1 mm
09:20 AM 43.8°F6.6°C 41.9°F5.5°C 93% 3.0 mph ESE4.8 kmh ESE 4.0 mph6.4 kmh 29.90 in1012.5 mb 0.05 in1.3 mm 0.00 in0.0 mm 0.24 in6.1 mm
09:25 AM 43.8°F6.6°C 41.9°F5.5°C 93% 9.0 mph E14.5 kmh E 9.0 mph14.5 kmh 29.90 in1012.5 mb 0.05 in1.3 mm 0.00 in0.0 mm 0.24 in6.1 mm
09:30 AM 43.9°F6.6°C 42.0°F5.6°C 93% 2.0 mph SE3.2 kmh SE 5.0 mph8.0 kmh 29.90 in1012.5 mb 0.05 in1.3 mm 0.00 in0.0 mm 0.24 in6.1 mm
09:35 AM 44.0°F6.7°C 42.1°F5.6°C 93% 2.0 mph S3.2 kmh S 4.0 mph6.4 kmh 29.89 in1012.2 mb 0.04 in1.0 mm 0.00 in0.0 mm 0.24 in6.1 mm
09:39 AM 44.1°F6.7°C 42.2°F5.7°C 93% 2.0 mph ESE3.2 kmh ESE 8.0 mph12.9 kmh 29.89 in1012.2 mb 0.04 in1.0 mm 0.00 in0.0 mm 0.24 in6.1 mm
09:44 AM 44.2°F6.8°C 42.3°F5.7°C 93% Calm Calm 5.0 mph8.0 kmh 29.90 in1012.5 mb 0.03 in0.8 mm 0.00 in0.0 mm 0.24 in6.1 mm
09:49 AM 44.3°F6.8°C 42.4°F5.8°C 93% 1.0 mph SE1.6 kmh SE 7.0 mph11.3 kmh 29.89 in1012.2 mb 0.03 in0.8 mm 0.00 in0.0 mm 0.24 in6.1 mm
09:55 AM 44.3°F6.8°C 42.4°F5.8°C 93% Calm Calm 3.0 mph4.8 kmh 29.88 in1011.9 mb 0.03 in0.8 mm 0.00 in0.0 mm 0.24 in6.1 mm
10:00 AM 44.4°F6.9°C 42.5°F5.8°C 93% 2.0 mph SE3.2 kmh SE 4.0 mph6.4 kmh 29.88 in1011.9 mb 0.02 in0.5 mm 0.00 in0.0 mm 0.24 in6.1 mm
10:05 AM 44.5°F6.9°C 42.6°F5.9°C 93% Calm Calm 5.0 mph8.0 kmh 29.88 in1011.9 mb 0.02 in0.5 mm 0.00 in0.0 mm 0.24 in6.1 mm
10:10 AM 44.6°F7.0°C 42.7°F5.9°C 93% 2.0 mph SE3.2 kmh SE 4.0 mph6.4 kmh 29.88 in1011.9 mb 0.01 in0.3 mm 0.00 in0.0 mm 0.24 in6.1 mm
10:14 AM 44.7°F7.1°C 42.8°F6.0°C 93% Calm Calm 3.0 mph4.8 kmh 29.86 in1011.2 mb 0.01 in0.3 mm 0.00 in0.0 mm 0.24 in6.1 mm
10:20 AM 44.8°F7.1°C 42.9°F6.1°C 93% 2.0 mph E3.2 kmh E 3.0 mph4.8 kmh 29.86 in1011.2 mb 0.01 in0.3 mm 0.00 in0.0 mm 0.24 in6.1 mm
10:25 AM 45.0°F7.2°C 43.1°F6.2°C 93% 1.0 mph SE1.6 kmh SE 6.0 mph9.7 kmh 29.86 in1011.2 mb 0.01 in0.3 mm 0.00 in0.0 mm 0.24 in6.1 mm
10:30 AM 45.1°F7.3°C 43.2°F6.2°C 93% Calm Calm 5.0 mph8.0 kmh 29.86 in1011.2 mb 0.01 in0.3 mm 0.00 in0.0 mm 0.24 in6.1 mm
10:34 AM 45.1°F7.3°C 43.2°F6.2°C 93% 2.0 mph SE3.2 kmh SE 3.0 mph4.8 kmh 29.84 in1010.5 mb 0.01 in0.3 mm 0.00 in0.0 mm 0.24 in6.1 mm
10:40 AM 45.2°F7.3°C 43.3°F6.3°C 93% Calm Calm 5.0 mph8.0 kmh 29.84 in1010.5 mb 0.01 in0.3 mm 0.00 in0.0 mm 0.24 in6.1 mm
10:45 AM 45.4°F7.4°C 43.5°F6.4°C 93% Calm Calm 4.0 mph6.4 kmh 29.83 in1010.2 mb 0.01 in0.3 mm 0.00 in0.0 mm 0.24 in6.1 mm
10:50 AM 45.6°F7.6°C 43.7°F6.5°C 93% 3.0 mph SSE4.8 kmh SSE 6.0 mph9.7 kmh 29.83 in1010.2 mb 0.01 in0.3 mm 0.00 in0.0 mm 0.24 in6.1 mm
10:55 AM 45.8°F7.7°C 43.9°F6.6°C 93% 2.0 mph E3.2 kmh E 7.0 mph11.3 kmh 29.82 in1009.8 mb 0.01 in0.3 mm 0.00 in0.0 mm 0.24 in6.1 mm
11:00 AM 46.0°F7.8°C 44.1°F6.7°C 93% 2.0 mph SE3.2 kmh SE 5.0 mph8.0 kmh 29.83 in1010.2 mb 0.00 in0.0 mm 0.00 in0.0 mm 0.24 in6.1 mm
11:05 AM 46.1°F7.8°C 44.2°F6.8°C 93% 5.0 mph S8.0 kmh S 5.0 mph8.0 kmh 29.83 in1010.2 mb 0.00 in0.0 mm 0.00 in0.0 mm 0.24 in6.1 mm
11:10 AM 46.2°F7.9°C 44.3°F6.8°C 93% 1.0 mph S1.6 kmh S 3.0 mph4.8 kmh 29.83 in1010.2 mb 0.00 in0.0 mm 0.00 in0.0 mm 0.24 in6.1 mm
11:15 AM 46.3°F7.9°C 44.4°F6.9°C 93% Calm Calm 6.0 mph9.7 kmh 29.81 in1009.5 mb 0.00 in0.0 mm 0.00 in0.0 mm 0.24 in6.1 mm
11:20 AM 46.3°F7.9°C 44.4°F6.9°C 93% 2.0 mph SE3.2 kmh SE 2.0 mph3.2 kmh 29.81 in1009.5 mb 0.00 in0.0 mm 0.00 in0.0 mm 0.24 in6.1 mm
11:25 AM 46.4°F8.0°C 44.5°F6.9°C 93% Calm Calm 3.0 mph4.8 kmh 29.80 in1009.1 mb 0.00 in0.0 mm 0.00 in0.0 mm 0.24 in6.1 mm
11:30 AM 46.5°F8.1°C 44.6°F7.0°C 93% Calm Calm 7.0 mph11.3 kmh 29.80 in1009.1 mb 0.00 in0.0 mm 0.00 in0.0 mm 0.24 in6.1 mm
11:35 AM 46.6°F8.1°C 44.7°F7.1°C 93% 2.0 mph E3.2 kmh E 6.0 mph9.7 kmh 29.80 in1009.1 mb 0.00 in0.0 mm 0.00 in0.0 mm 0.24 in6.1 mm
11:39 AM 46.6°F8.1°C 44.7°F7.1°C 93% 2.0 mph ESE3.2 kmh ESE 4.0 mph6.4 kmh 29.80 in1009.1 mb 0.00 in0.0 mm 0.00 in0.0 mm 0.24 in6.1 mm
11:45 AM 46.7°F8.2°C 44.8°F7.1°C 93% 4.0 mph S6.4 kmh S 5.0 mph8.0 kmh 29.80 in1009.1 mb 0.00 in0.0 mm 0.00 in0.0 mm 0.24 in6.1 mm
11:50 AM 46.8°F8.2°C 44.9°F7.2°C 93% 5.0 mph SSE8.0 kmh SSE 8.0 mph12.9 kmh 29.79 in1008.8 mb 0.00 in0.0 mm 0.00 in0.0 mm 0.24 in6.1 mm
11:55 AM 47.1°F8.4°C 45.2°F7.3°C 93% Calm Calm 9.0 mph14.5 kmh 29.79 in1008.8 mb 0.00 in0.0 mm 0.00 in0.0 mm 0.24 in6.1 mm
12:00 PM 47.3°F8.5°C 45.4°F7.4°C 93% 4.0 mph SSE6.4 kmh SSE 10.0 mph16.1 kmh 29.78 in1008.5 mb 0.00 in0.0 mm 0.00 in0.0 mm 0.24 in6.1 mm
12:05 PM 47.4°F8.6°C 45.5°F7.5°C 93% 5.0 mph SSE8.0 kmh SSE 7.0 mph11.3 kmh 29.77 in1008.1 mb 0.01 in0.3 mm 0.12 in3.0 mm 0.25 in6.4 mm
12:09 PM 47.8°F8.8°C 45.9°F7.7°C 93% 6.0 mph S9.7 kmh S 10.0 mph16.1 kmh 29.77 in1008.1 mb 0.02 in0.5 mm 0.15 in3.8 mm 0.26 in6.6 mm
12:15 PM 47.9°F8.8°C 46.0°F7.8°C 93% 4.0 mph SE6.4 kmh SE 7.0 mph11.3 kmh 29.76 in1007.8 mb 0.03 in0.8 mm 0.10 in2.5 mm 0.27 in6.9 mm
12:20 PM 48.1°F8.9°C 46.2°F7.9°C 93% 2.0 mph SE3.2 kmh SE 6.0 mph9.7 kmh 29.76 in1007.8 mb 0.04 in1.0 mm 0.12 in3.0 mm 0.28 in7.1 mm
12:25 PM 48.3°F9.1°C 46.4°F8.0°C 93% 5.0 mph S8.0 kmh S 9.0 mph14.5 kmh 29.75 in1007.5 mb 0.05 in1.3 mm 0.12 in3.0 mm 0.29 in7.4 mm
12:30 PM 48.5°F9.2°C 46.6°F8.1°C 93% 4.0 mph SE6.4 kmh SE 6.0 mph9.7 kmh 29.74 in1007.1 mb 0.06 in1.5 mm 0.12 in3.0 mm 0.30 in7.6 mm
12:35 PM 48.6°F9.2°C 46.7°F8.2°C 93% 2.0 mph ESE3.2 kmh ESE 8.0 mph12.9 kmh 29.73 in1006.8 mb 0.08 in2.0 mm 0.24 in6.1 mm 0.32 in8.1 mm
12:40 PM 48.8°F9.3°C 46.9°F8.3°C 93% 2.0 mph SSE3.2 kmh SSE 9.0 mph14.5 kmh 29.73 in1006.8 mb 0.08 in2.0 mm 0.00 in0.0 mm 0.32 in8.1 mm
12:45 PM 49.0°F9.4°C 47.1°F8.4°C 93% 7.0 mph SSE11.3 kmh SSE 10.0 mph16.1 kmh 29.73 in1006.8 mb 0.10 in2.5 mm 0.24 in6.1 mm 0.34 in8.6 mm
12:50 PM 49.2°F9.6°C 47.3°F8.5°C 93% 4.0 mph SE6.4 kmh SE 8.0 mph12.9 kmh 29.72 in1006.4 mb 0.11 in2.8 mm 0.12 in3.0 mm 0.35 in8.9 mm
12:55 PM 49.4°F9.7°C 47.5°F8.6°C 93% 4.0 mph SE6.4 kmh SE 11.0 mph17.7 kmh 29.71 in1006.1 mb 0.13 in3.3 mm 0.24 in6.1 mm 0.37 in9.4 mm
01:00 PM 49.7°F9.8°C 47.8°F8.8°C 93% 4.0 mph SE6.4 kmh SE 6.0 mph9.7 kmh 29.70 in1005.8 mb 0.14 in3.6 mm 0.01 in0.3 mm 0.38 in9.7 mm
01:05 PM 49.9°F9.9°C 48.0°F8.9°C 93% 3.0 mph S4.8 kmh S 7.0 mph11.3 kmh 29.70 in1005.8 mb 0.15 in3.8 mm 0.12 in3.0 mm 0.39 in9.9 mm
01:10 PM 50.1°F10.1°C 48.2°F9.0°C 93% 6.0 mph SSE9.7 kmh SSE 7.0 mph11.3 kmh 29.69 in1005.4 mb 0.17 in4.3 mm 0.24 in6.1 mm 0.41 in10.4 mm
01:15 PM 50.3°F10.2°C 48.4°F9.1°C 93% 4.0 mph SE6.4 kmh SE 7.0 mph11.3 kmh 29.68 in1005.1 mb 0.18 in4.6 mm 0.12 in3.0 mm 0.42 in10.7 mm
01:19 PM 50.5°F10.3°C 48.6°F9.2°C 93% 5.0 mph SE8.0 kmh SE 7.0 mph11.3 kmh 29.68 in1005.1 mb 0.17 in4.3 mm 0.00 in0.0 mm 0.42 in10.7 mm
01:24 PM 50.6°F10.3°C 48.7°F9.3°C 93% 3.0 mph S4.8 kmh S 10.0 mph16.1 kmh 29.66 in1004.4 mb 0.19 in4.8 mm 0.24 in6.1 mm 0.44 in11.2 mm
01:30 PM 50.8°F10.4°C 48.9°F9.4°C 93% 1.0 mph S1.6 kmh S 6.0 mph9.7 kmh 29.67 in1004.7 mb 0.18 in4.6 mm 0.00 in0.0 mm 0.44 in11.2 mm
01:35 PM 50.9°F10.5°C 49.0°F9.4°C 93% 6.0 mph SSE9.7 kmh SSE 7.0 mph11.3 kmh 29.66 in1004.4 mb 0.19 in4.8 mm 0.12 in3.0 mm 0.45 in11.4 mm
01:39 PM 51.0°F10.6°C 49.1°F9.5°C 93% 7.0 mph S11.3 kmh S 9.0 mph14.5 kmh 29.66 in1004.4 mb 0.20 in5.1 mm 0.15 in3.8 mm 0.46 in11.7 mm
01:45 PM 51.2°F10.7°C 49.3°F9.6°C 93% 2.0 mph ESE3.2 kmh ESE 9.0 mph14.5 kmh 29.66 in1004.4 mb 0.22 in5.6 mm 0.20 in5.1 mm 0.48 in12.2 mm
01:50 PM 51.4°F10.8°C 49.5°F9.7°C 93% Calm Calm 7.0 mph11.3 kmh 29.65 in1004.1 mb 0.23 in5.8 mm 0.12 in3.0 mm 0.49 in12.4 mm
01:54 PM 51.5°F10.8°C 49.6°F9.8°C 93% 4.0 mph S6.4 kmh S 6.0 mph9.7 kmh 29.65 in1004.1 mb 0.24 in6.1 mm 0.15 in3.8 mm 0.50 in12.7 mm
01:59 PM 51.5°F10.8°C 49.6°F9.8°C 93% 2.0 mph SE3.2 kmh SE 7.0 mph11.3 kmh 29.64 in1003.7 mb 0.24 in6.1 mm 0.00 in0.0 mm 0.50 in12.7 mm
02:04 PM 51.7°F10.9°C 49.8°F9.9°C 93% 2.0 mph SSE3.2 kmh SSE 5.0 mph8.0 kmh 29.64 in1003.7 mb 0.24 in6.1 mm 0.00 in0.0 mm 0.50 in12.7 mm
02:10 PM 51.8°F11.0°C 49.8°F9.9°C 93% 3.0 mph SE4.8 kmh SE 7.0 mph11.3 kmh 29.62 in1003.0 mb 0.22 in5.6 mm 0.00 in0.0 mm 0.50 in12.7 mm
02:15 PM 52.0°F11.1°C 50.0°F10.0°C 93% 3.0 mph S4.8 kmh S 9.0 mph14.5 kmh 29.62 in1003.0 mb 0.21 in5.3 mm 0.00 in0.0 mm 0.50 in12.7 mm
02:20 PM 52.3°F11.3°C 50.3°F10.2°C 93% 3.0 mph SE4.8 kmh SE 7.0 mph11.3 kmh 29.62 in1003.0 mb 0.20 in5.1 mm 0.00 in0.0 mm 0.50 in12.7 mm
02:25 PM 52.4°F11.3°C 50.4°F10.2°C 93% 2.0 mph SSE3.2 kmh SSE 6.0 mph9.7 kmh 29.61 in1002.7 mb 0.19 in4.8 mm 0.00 in0.0 mm 0.50 in12.7 mm
02:30 PM 52.7°F11.5°C 50.7°F10.4°C 93% 3.0 mph SE4.8 kmh SE 7.0 mph11.3 kmh 29.61 in1002.7 mb 0.19 in4.8 mm 0.00 in0.0 mm 0.50 in12.7 mm
02:35 PM 53.1°F11.7°C 51.1°F10.6°C 93% 2.0 mph SE3.2 kmh SE 7.0 mph11.3 kmh 29.60 in1002.4 mb 0.19 in4.8 mm 0.00 in0.0 mm 0.50 in12.7 mm
02:45 PM 53.5°F11.9°C 51.5°F10.8°C 93% 2.0 mph S3.2 kmh S 5.0 mph8.0 kmh 29.60 in1002.4 mb 0.17 in4.3 mm 0.00 in0.0 mm 0.50 in12.7 mm
02:49 PM 53.7°F12.1°C 51.7°F10.9°C 93% 2.0 mph SSW3.2 kmh SSW 9.0 mph14.5 kmh 29.60 in1002.4 mb 0.15 in3.8 mm 0.00 in0.0 mm 0.50 in12.7 mm
02:55 PM 53.8°F12.1°C 51.8°F11.0°C 93% 2.0 mph S3.2 kmh S 6.0 mph9.7 kmh 29.60 in1002.4 mb 0.14 in3.6 mm 0.00 in0.0 mm 0.50 in12.7 mm
03:00 PM 53.9°F12.2°C 51.9°F11.1°C 93% 12.0 mph S19.3 kmh S 12.0 mph19.3 kmh 29.58 in1001.7 mb 0.12 in3.0 mm 0.00 in0.0 mm 0.50 in12.7 mm
03:05 PM 54.0°F12.2°C 52.0°F11.1°C 93% Calm Calm 8.0 mph12.9 kmh 29.60 in1002.4 mb 0.11 in2.8 mm 0.00 in0.0 mm 0.50 in12.7 mm
03:10 PM 54.1°F12.3°C 52.1°F11.2°C 93% Calm Calm 6.0 mph9.7 kmh 29.59 in1002.0 mb 0.12 in3.0 mm 0.12 in3.0 mm 0.51 in13.0 mm
03:15 PM 54.1°F12.3°C 52.1°F11.2°C 93% Calm Calm 4.0 mph6.4 kmh 29.58 in1001.7 mb 0.13 in3.3 mm 0.12 in3.0 mm 0.52 in13.2 mm
03:20 PM 54.1°F12.3°C 52.1°F11.2°C 93% 1.0 mph SE1.6 kmh SE 2.0 mph3.2 kmh 29.58 in1001.7 mb 0.16 in4.1 mm 0.36 in9.1 mm 0.55 in14.0 mm
03:25 PM 54.2°F12.3°C 52.2°F11.2°C 93% 2.0 mph SSE3.2 kmh SSE 4.0 mph6.4 kmh 29.58 in1001.7 mb 0.17 in4.3 mm 0.12 in3.0 mm 0.56 in14.2 mm
03:30 PM 54.2°F12.3°C 52.2°F11.2°C 93% 1.0 mph S1.6 kmh S 5.0 mph8.0 kmh 29.58 in1001.7 mb 0.17 in4.3 mm 0.00 in0.0 mm 0.56 in14.2 mm
03:35 PM 54.3°F12.4°C 52.3°F11.3°C 93% Calm Calm 3.0 mph4.8 kmh 29.57 in1001.4 mb 0.18 in4.6 mm 0.12 in3.0 mm 0.57 in14.5 mm
03:40 PM 54.3°F12.4°C 52.3°F11.3°C 93% 2.0 mph SSE3.2 kmh SSE 4.0 mph6.4 kmh 29.58 in1001.7 mb 0.19 in4.8 mm 0.12 in3.0 mm 0.58 in14.7 mm
03:45 PM 54.4°F12.4°C 52.4°F11.3°C 93% 2.0 mph SSE3.2 kmh SSE 5.0 mph8.0 kmh 29.57 in1001.4 mb 0.19 in4.8 mm 0.00 in0.0 mm 0.58 in14.7 mm
03:50 PM 54.5°F12.5°C 52.5°F11.4°C 93% 3.0 mph SSE4.8 kmh SSE 4.0 mph6.4 kmh 29.58 in1001.7 mb 0.21 in5.3 mm 0.24 in6.1 mm 0.60 in15.2 mm
03:55 PM 54.6°F12.6°C 52.6°F11.4°C 93% 5.0 mph SSE8.0 kmh SSE 5.0 mph8.0 kmh 29.58 in1001.7 mb 0.22 in5.6 mm 0.12 in3.0 mm 0.61 in15.5 mm
04:00 PM 55.0°F12.8°C 53.0°F11.7°C 93% 5.0 mph S8.0 kmh S 9.0 mph14.5 kmh 29.58 in1001.7 mb 0.23 in5.8 mm 0.01 in0.3 mm 0.62 in15.7 mm
04:05 PM 55.3°F12.9°C 53.3°F11.8°C 93% 3.0 mph S4.8 kmh S 6.0 mph9.7 kmh 29.59 in1002.0 mb 0.25 in6.4 mm 0.24 in6.1 mm 0.64 in16.3 mm
04:10 PM 55.4°F13.0°C 53.4°F11.9°C 93% 2.0 mph S3.2 kmh S 2.0 mph3.2 kmh 29.58 in1001.7 mb 0.26 in6.6 mm 0.12 in3.0 mm 0.65 in16.5 mm
04:14 PM 55.5°F13.1°C 53.5°F11.9°C 93% 4.0 mph SW6.4 kmh SW 4.0 mph6.4 kmh 29.57 in1001.4 mb 0.27 in6.9 mm 0.15 in3.8 mm 0.66 in16.8 mm
04:20 PM 57.0°F13.9°C 55.0°F12.8°C 93% 4.0 mph WSW6.4 kmh WSW 10.0 mph16.1 kmh 29.58 in1001.7 mb 0.28 in7.1 mm 0.10 in2.5 mm 0.67 in17.0 mm
04:25 PM 58.2°F14.6°C 56.2°F13.4°C 93% 3.0 mph SW4.8 kmh SW 6.0 mph9.7 kmh 29.57 in1001.4 mb 0.28 in7.1 mm 0.00 in0.0 mm 0.67 in17.0 mm
04:30 PM 58.7°F14.8°C 56.7°F13.7°C 93% Calm Calm 5.0 mph8.0 kmh 29.55 in1000.7 mb 0.28 in7.1 mm 0.00 in0.0 mm 0.67 in17.0 mm
04:34 PM 58.9°F14.9°C 56.9°F13.8°C 93% 2.0 mph S3.2 kmh S 4.0 mph6.4 kmh 29.56 in1001.0 mb 0.28 in7.1 mm 0.00 in0.0 mm 0.67 in17.0 mm
04:40 PM 59.1°F15.1°C 57.1°F13.9°C 93% 2.0 mph S3.2 kmh S 2.0 mph3.2 kmh 29.55 in1000.7 mb 0.27 in6.9 mm 0.00 in0.0 mm 0.67 in17.0 mm
04:45 PM 59.1°F15.1°C 57.1°F13.9°C 93% 1.0 mph S1.6 kmh S 4.0 mph6.4 kmh 29.55 in1000.7 mb 0.26 in6.6 mm 0.00 in0.0 mm 0.67 in17.0 mm
04:50 PM 59.0°F15.0°C 57.0°F13.9°C 93% 2.0 mph S3.2 kmh S 3.0 mph4.8 kmh 29.55 in1000.7 mb 0.26 in6.6 mm 0.00 in0.0 mm 0.67 in17.0 mm
04:55 PM 59.0°F15.0°C 57.0°F13.9°C 93% 5.0 mph S8.0 kmh S 10.0 mph16.1 kmh 29.55 in1000.7 mb 0.25 in6.4 mm 0.00 in0.0 mm 0.67 in17.0 mm
05:00 PM 59.1°F15.1°C 57.1°F13.9°C 93% 3.0 mph S4.8 kmh S 8.0 mph12.9 kmh 29.55 in1000.7 mb 0.24 in6.1 mm 0.00 in0.0 mm 0.67 in17.0 mm
05:05 PM 59.2°F15.1°C 57.2°F14.0°C 93% 3.0 mph S4.8 kmh S 4.0 mph6.4 kmh 29.54 in1000.3 mb 0.23 in5.8 mm 0.00 in0.0 mm 0.67 in17.0 mm
05:10 PM 59.5°F15.3°C 57.5°F14.2°C 93% 5.0 mph S8.0 kmh S 11.0 mph17.7 kmh 29.53 in1000.0 mb 0.22 in5.6 mm 0.00 in0.0 mm 0.67 in17.0 mm
05:15 PM 59.8°F15.4°C 57.8°F14.3°C 93% 2.0 mph SSE3.2 kmh SSE 10.0 mph16.1 kmh 29.52 in999.7 mb 0.19 in4.8 mm 0.00 in0.0 mm 0.67 in17.0 mm
05:20 PM 60.0°F15.6°C 58.0°F14.4°C 93% 3.0 mph S4.8 kmh S 14.0 mph22.5 kmh 29.51 in999.3 mb 0.17 in4.3 mm 0.00 in0.0 mm 0.67 in17.0 mm
05:25 PM 60.2°F15.7°C 58.2°F14.6°C 93% 5.0 mph S8.0 kmh S 9.0 mph14.5 kmh 29.51 in999.3 mb 0.14 in3.6 mm 0.00 in0.0 mm 0.67 in17.0 mm
05:30 PM 60.3°F15.7°C 58.3°F14.6°C 93% 4.0 mph SSE6.4 kmh SSE 11.0 mph17.7 kmh 29.51 in999.3 mb 0.12 in3.0 mm 0.00 in0.0 mm 0.67 in17.0 mm
05:35 PM 60.3°F15.7°C 58.3°F14.6°C 93% 2.0 mph S3.2 kmh S 8.0 mph12.9 kmh 29.51 in999.3 mb 0.10 in2.5 mm 0.00 in0.0 mm 0.67 in17.0 mm
05:40 PM 60.4°F15.8°C 58.4°F14.7°C 93% 5.0 mph SSE8.0 kmh SSE 10.0 mph16.1 kmh 29.51 in999.3 mb 0.08 in2.0 mm 0.00 in0.0 mm 0.67 in17.0 mm
05:44 PM 60.4°F15.8°C 58.4°F14.7°C 93% 11.0 mph S17.7 kmh S 11.0 mph17.7 kmh 29.53 in1000.0 mb 0.07 in1.8 mm 0.00 in0.0 mm 0.67 in17.0 mm
05:50 PM 60.5°F15.8°C 58.5°F14.7°C 93% 5.0 mph SSE8.0 kmh SSE 9.0 mph14.5 kmh 29.52 in999.7 mb 0.05 in1.3 mm 0.00 in0.0 mm 0.67 in17.0 mm
05:55 PM 60.5°F15.8°C 58.5°F14.7°C 93% 6.0 mph SW9.7 kmh SW 9.0 mph14.5 kmh 29.52 in999.7 mb 0.04 in1.0 mm 0.00 in0.0 mm 0.67 in17.0 mm
06:00 PM 60.5°F15.8°C 58.5°F14.7°C 93% 5.0 mph S8.0 kmh S 7.0 mph11.3 kmh 29.52 in999.7 mb 0.03 in0.8 mm 0.00 in0.0 mm 0.67 in17.0 mm
06:05 PM 60.6°F15.9°C 58.6°F14.8°C 93% 3.0 mph S4.8 kmh S 8.0 mph12.9 kmh 29.52 in999.7 mb 0.02 in0.5 mm 0.00 in0.0 mm 0.67 in17.0 mm
06:10 PM 60.6°F15.9°C 58.6°F14.8°C 93% 8.0 mph S12.9 kmh S 10.0 mph16.1 kmh 29.52 in999.7 mb 0.01 in0.3 mm 0.00 in0.0 mm 0.67 in17.0 mm
06:15 PM 60.7°F15.9°C 58.7°F14.8°C 93% 6.0 mph S9.7 kmh S 11.0 mph17.7 kmh 29.53 in1000.0 mb 0.00 in0.0 mm 0.00 in0.0 mm 0.67 in17.0 mm
06:20 PM 60.8°F16.0°C 58.8°F14.9°C 93% 5.0 mph SSW8.0 kmh SSW 11.0 mph17.7 kmh 29.53 in1000.0 mb 0.00 in0.0 mm 0.00 in0.0 mm 0.67 in17.0 mm
06:25 PM 60.9°F16.1°C 58.9°F14.9°C 93% 5.0 mph S8.0 kmh S 12.0 mph19.3 kmh 29.53 in1000.0 mb 0.00 in0.0 mm 0.00 in0.0 mm 0.67 in17.0 mm
06:30 PM 61.1°F16.2°C 59.1°F15.1°C 93% 8.0 mph S12.9 kmh S 11.0 mph17.7 kmh 29.54 in1000.3 mb 0.00 in0.0 mm 0.00 in0.0 mm 0.67 in17.0 mm
06:35 PM 61.2°F16.2°C 58.9°F14.9°C 92% 7.0 mph S11.3 kmh S 9.0 mph14.5 kmh 29.55 in1000.7 mb 0.00 in0.0 mm 0.00 in0.0 mm 0.67 in17.0 mm
06:40 PM 61.3°F16.3°C 59.0°F15.0°C 92% 4.0 mph SSW6.4 kmh SSW 9.0 mph14.5 kmh 29.54 in1000.3 mb 0.00 in0.0 mm 0.00 in0.0 mm 0.67 in17.0 mm
06:45 PM 61.4°F16.3°C 59.1°F15.1°C 92% 7.0 mph SW11.3 kmh SW 9.0 mph14.5 kmh 29.54 in1000.3 mb 0.00 in0.0 mm 0.00 in0.0 mm 0.67 in17.0 mm
06:50 PM 61.5°F16.4°C 58.9°F14.9°C 91% 14.0 mph SW22.5 kmh SW 16.0 mph25.7 kmh 29.54 in1000.3 mb 0.00 in0.0 mm 0.00 in0.0 mm 0.67 in17.0 mm
06:55 PM 61.8°F16.6°C 58.8°F14.9°C 90% 5.0 mph SW8.0 kmh SW 15.0 mph24.1 kmh 29.55 in1000.7 mb 0.00 in0.0 mm 0.00 in0.0 mm 0.67 in17.0 mm
07:00 PM 61.8°F16.6°C 58.5°F14.7°C 89% 6.0 mph SW9.7 kmh SW 13.0 mph20.9 kmh 29.54 in1000.3 mb 0.00 in0.0 mm 0.00 in0.0 mm 0.67 in17.0 mm
07:05 PM 61.8°F16.6°C 58.5°F14.7°C 89% 15.0 mph SW24.1 kmh SW 15.0 mph24.1 kmh 29.54 in1000.3 mb 0.00 in0.0 mm 0.00 in0.0 mm 0.67 in17.0 mm
07:10 PM 62.2°F16.8°C 58.3°F14.6°C 87% 6.0 mph SW9.7 kmh SW 20.0 mph32.2 kmh 29.55 in1000.7 mb 0.00 in0.0 mm 0.00 in0.0 mm 0.67 in17.0 mm
07:15 PM 62.1°F16.7°C 58.2°F14.6°C 87% 13.0 mph SW20.9 kmh SW 14.0 mph22.5 kmh 29.55 in1000.7 mb 0.00 in0.0 mm 0.00 in0.0 mm 0.67 in17.0 mm
07:20 PM 62.2°F16.8°C 58.0°F14.4°C 86% 9.0 mph WSW14.5 kmh WSW 21.0 mph33.8 kmh 29.56 in1001.0 mb 0.00 in0.0 mm 0.00 in0.0 mm 0.67 in17.0 mm
07:25 PM 62.2°F16.8°C 57.6°F14.2°C 85% 13.0 mph SW20.9 kmh SW 24.0 mph38.6 kmh 29.56 in1001.0 mb 0.00 in0.0 mm 0.00 in0.0 mm 0.67 in17.0 mm
07:30 PM 62.1°F16.7°C 57.5°F14.2°C 85% 8.0 mph SW12.9 kmh SW 13.0 mph20.9 kmh 29.55 in1000.7 mb 0.00 in0.0 mm 0.00 in0.0 mm 0.67 in17.0 mm
07:35 PM 62.0°F16.7°C 57.5°F14.2°C 85% 10.0 mph SW16.1 kmh SW 19.0 mph30.6 kmh 29.56 in1001.0 mb 0.00 in0.0 mm 0.00 in0.0 mm 0.67 in17.0 mm
07:40 PM 62.0°F16.7°C 57.1°F13.9°C 84% 12.0 mph SW19.3 kmh SW 18.0 mph29.0 kmh 29.56 in1001.0 mb 0.00 in0.0 mm 0.00 in0.0 mm 0.67 in17.0 mm
07:45 PM 62.0°F16.7°C 57.1°F13.9°C 84% 5.0 mph SW8.0 kmh SW 15.0 mph24.1 kmh 29.56 in1001.0 mb 0.00 in0.0 mm 0.00 in0.0 mm 0.67 in17.0 mm
07:49 PM 61.9°F16.6°C 57.0°F13.9°C 84% 9.0 mph S14.5 kmh S 18.0 mph29.0 kmh 29.56 in1001.0 mb 0.00 in0.0 mm 0.00 in0.0 mm 0.67 in17.0 mm
07:55 PM 61.8°F16.6°C 56.9°F13.8°C 84% 12.0 mph SW19.3 kmh SW 19.0 mph30.6 kmh 29.57 in1001.4 mb 0.00 in0.0 mm 0.00 in0.0 mm 0.67 in17.0 mm
08:00 PM 61.4°F16.3°C 56.9°F13.8°C 85% 8.0 mph WNW12.9 kmh WNW 14.0 mph22.5 kmh 29.59 in1002.0 mb 0.00 in0.0 mm 0.00 in0.0 mm 0.67 in17.0 mm
08:05 PM 60.2°F15.7°C 55.4°F13.0°C 84% 17.0 mph W27.4 kmh W 19.0 mph30.6 kmh 29.61 in1002.7 mb 0.00 in0.0 mm 0.00 in0.0 mm 0.67 in17.0 mm
08:10 PM 58.9°F14.9°C 54.4°F12.4°C 85% 12.0 mph WSW19.3 kmh WSW 28.0 mph45.1 kmh 29.61 in1002.7 mb 0.00 in0.0 mm 0.00 in0.0 mm 0.67 in17.0 mm
08:15 PM 58.2°F14.6°C 54.0°F12.2°C 86% 9.0 mph S14.5 kmh S 23.0 mph37.0 kmh 29.62 in1003.0 mb 0.00 in0.0 mm 0.00 in0.0 mm 0.67 in17.0 mm
08:19 PM 57.8°F14.3°C 53.7°F12.1°C 86% 11.0 mph WSW17.7 kmh WSW 17.0 mph27.4 kmh 29.62 in1003.0 mb 0.00 in0.0 mm 0.00 in0.0 mm 0.67 in17.0 mm
08:25 PM 57.4°F14.1°C 53.3°F11.8°C 86% 12.0 mph W19.3 kmh W 23.0 mph37.0 kmh 29.63 in1003.4 mb 0.00 in0.0 mm 0.00 in0.0 mm 0.67 in17.0 mm
08:30 PM 57.1°F13.9°C 52.3°F11.3°C 84% 19.0 mph SW30.6 kmh SW 19.0 mph30.6 kmh 29.64 in1003.7 mb 0.00 in0.0 mm 0.00 in0.0 mm 0.67 in17.0 mm
08:35 PM 56.7°F13.7°C 51.6°F10.9°C 83% 16.0 mph SW25.7 kmh SW 20.0 mph32.2 kmh 29.64 in1003.7 mb 0.00 in0.0 mm 0.00 in0.0 mm 0.67 in17.0 mm
08:40 PM 56.3°F13.5°C 50.6°F10.3°C 81% 14.0 mph W22.5 kmh W 20.0 mph32.2 kmh 29.65 in1004.1 mb 0.00 in0.0 mm 0.00 in0.0 mm 0.67 in17.0 mm
08:45 PM 56.1°F13.4°C 49.7°F9.8°C 79% 10.0 mph W16.1 kmh W 29.0 mph46.7 kmh 29.65 in1004.1 mb 0.00 in0.0 mm 0.00 in0.0 mm 0.67 in17.0 mm
08:50 PM 55.8°F13.2°C 49.1°F9.5°C 78% 6.0 mph W9.7 kmh W 30.0 mph48.3 kmh 29.66 in1004.4 mb 0.00 in0.0 mm 0.00 in0.0 mm 0.67 in17.0 mm
08:55 PM 55.5°F13.1°C 48.8°F9.3°C 78% 17.0 mph SW27.4 kmh SW 23.0 mph37.0 kmh 29.66 in1004.4 mb 0.00 in0.0 mm 0.00 in0.0 mm 0.67 in17.0 mm
09:00 PM 55.3°F12.9°C 48.6°F9.2°C 78% 10.0 mph SW16.1 kmh SW 27.0 mph43.5 kmh 29.67 in1004.7 mb 0.00 in0.0 mm 0.00 in0.0 mm 0.67 in17.0 mm
09:05 PM 55.1°F12.8°C 48.7°F9.3°C 79% 15.0 mph SW24.1 kmh SW 15.0 mph24.1 kmh 29.68 in1005.1 mb 0.00 in0.0 mm 0.00 in0.0 mm 0.67 in17.0 mm
09:09 PM 54.4°F12.4°C 47.4°F8.6°C 77% 12.0 mph SW19.3 kmh SW 27.0 mph43.5 kmh 29.69 in1005.4 mb 0.00 in0.0 mm 0.00 in0.0 mm 0.67 in17.0 mm
09:15 PM 53.8°F12.1°C 46.4°F8.0°C 76% 11.0 mph W17.7 kmh W 25.0 mph40.2 kmh 29.70 in1005.8 mb 0.00 in0.0 mm 0.00 in0.0 mm 0.67 in17.0 mm
09:20 PM 53.4°F11.9°C 46.4°F8.0°C 77% 13.0 mph W20.9 kmh W 24.0 mph38.6 kmh 29.70 in1005.8 mb 0.00 in0.0 mm 0.00 in0.0 mm 0.67 in17.0 mm
09:24 PM 52.9°F11.6°C 45.9°F7.7°C 77% 13.0 mph SW20.9 kmh SW 20.0 mph32.2 kmh 29.70 in1005.8 mb 0.00 in0.0 mm 0.00 in0.0 mm 0.67 in17.0 mm
09:30 PM 52.7°F11.5°C 45.7°F7.6°C 77% 10.0 mph SSW16.1 kmh SSW 20.0 mph32.2 kmh 29.70 in1005.8 mb 0.00 in0.0 mm 0.00 in0.0 mm 0.67 in17.0 mm
09:35 PM 52.4°F11.3°C 45.8°F7.7°C 78% 15.0 mph WSW24.1 kmh WSW 25.0 mph40.2 kmh 29.70 in1005.8 mb 0.00 in0.0 mm 0.00 in0.0 mm 0.67 in17.0 mm
09:40 PM 52.4°F11.3°C 45.1°F7.3°C 76% 16.0 mph WSW25.7 kmh WSW 25.0 mph40.2 kmh 29.71 in1006.1 mb 0.00 in0.0 mm 0.00 in0.0 mm 0.67 in17.0 mm
09:45 PM 52.3°F11.3°C 45.0°F7.2°C 76% 6.0 mph SW9.7 kmh SW 17.0 mph27.4 kmh 29.71 in1006.1 mb 0.00 in0.0 mm 0.00 in0.0 mm 0.67 in17.0 mm
09:50 PM 52.1°F11.2°C 45.1°F7.3°C 77% 8.0 mph SW12.9 kmh SW 22.0 mph35.4 kmh 29.71 in1006.1 mb 0.00 in0.0 mm 0.00 in0.0 mm 0.67 in17.0 mm
09:55 PM 51.7°F10.9°C 45.4°F7.4°C 79% 13.0 mph W20.9 kmh W 23.0 mph37.0 kmh 29.72 in1006.4 mb 0.00 in0.0 mm 0.00 in0.0 mm 0.67 in17.0 mm
10:00 PM 51.2°F10.7°C 45.3°F7.4°C 80% 18.0 mph SW29.0 kmh SW 27.0 mph43.5 kmh 29.73 in1006.8 mb 0.00 in0.0 mm 0.00 in0.0 mm 0.67 in17.0 mm
10:04 PM 50.9°F10.5°C 45.3°F7.4°C 81% 16.0 mph WSW25.7 kmh WSW 21.0 mph33.8 kmh 29.73 in1006.8 mb 0.00 in0.0 mm 0.00 in0.0 mm 0.67 in17.0 mm
10:10 PM 50.6°F10.3°C 45.3°F7.4°C 82% 11.0 mph SW17.7 kmh SW 25.0 mph40.2 kmh 29.73 in1006.8 mb 0.00 in0.0 mm 0.00 in0.0 mm 0.67 in17.0 mm
10:15 PM 50.4°F10.2°C 45.1°F7.3°C 82% 14.0 mph SW22.5 kmh SW 20.0 mph32.2 kmh 29.74 in1007.1 mb 0.00 in0.0 mm 0.00 in0.0 mm 0.67 in17.0 mm
10:20 PM 50.3°F10.2°C 45.0°F7.2°C 82% 8.0 mph NNW12.9 kmh NNW 18.0 mph29.0 kmh 29.74 in1007.1 mb 0.00 in0.0 mm 0.00 in0.0 mm 0.67 in17.0 mm
10:24 PM 49.9°F9.9°C 44.6°F7.0°C 82% 11.0 mph SW17.7 kmh SW 19.0 mph30.6 kmh 29.75 in1007.5 mb 0.00 in0.0 mm 0.00 in0.0 mm 0.67 in17.0 mm
10:29 PM 49.6°F9.8°C 44.7°F7.1°C 83% 10.0 mph NW16.1 kmh NW 17.0 mph27.4 kmh 29.75 in1007.5 mb 0.00 in0.0 mm 0.00 in0.0 mm 0.67 in17.0 mm
10:34 PM 49.4°F9.7°C 44.8°F7.1°C 84% 9.0 mph SW14.5 kmh SW 15.0 mph24.1 kmh 29.76 in1007.8 mb 0.00 in0.0 mm 0.00 in0.0 mm 0.67 in17.0 mm
10:40 PM 49.2°F9.6°C 44.3°F6.8°C 83% 10.0 mph SW16.1 kmh SW 18.0 mph29.0 kmh 29.76 in1007.8 mb 0.00 in0.0 mm 0.00 in0.0 mm 0.67 in17.0 mm
10:44 PM 49.2°F9.6°C 44.3°F6.8°C 83% 9.0 mph WSW14.5 kmh WSW 14.0 mph22.5 kmh 29.77 in1008.1 mb 0.00 in0.0 mm 0.00 in0.0 mm 0.67 in17.0 mm
10:50 PM 49.2°F9.6°C 44.0°F6.7°C 82% 6.0 mph WNW9.7 kmh WNW 19.0 mph30.6 kmh 29.77 in1008.1 mb 0.00 in0.0 mm 0.00 in0.0 mm 0.67 in17.0 mm
10:55 PM 49.2°F9.6°C 44.0°F6.7°C 82% 9.0 mph SW14.5 kmh SW 15.0 mph24.1 kmh 29.78 in1008.5 mb 0.00 in0.0 mm 0.00 in0.0 mm 0.67 in17.0 mm
11:00 PM 49.2°F9.6°C 43.6°F6.4°C 81% 16.0 mph SW25.7 kmh SW 21.0 mph33.8 kmh 29.78 in1008.5 mb 0.00 in0.0 mm 0.00 in0.0 mm 0.67 in17.0 mm
11:05 PM 49.1°F9.5°C 43.5°F6.4°C 81% 8.0 mph WSW12.9 kmh WSW 28.0 mph45.1 kmh 29.79 in1008.8 mb 0.00 in0.0 mm 0.00 in0.0 mm 0.67 in17.0 mm
11:10 PM 49.0°F9.4°C 43.4°F6.3°C 81% 8.0 mph SW12.9 kmh SW 32.0 mph51.5 kmh 29.79 in1008.8 mb 0.00 in0.0 mm 0.00 in0.0 mm 0.67 in17.0 mm
11:15 PM 48.9°F9.4°C 43.3°F6.3°C 81% 7.0 mph NW11.3 kmh NW 21.0 mph33.8 kmh 29.80 in1009.1 mb 0.00 in0.0 mm 0.00 in0.0 mm 0.67 in17.0 mm
11:20 PM 48.8°F9.3°C 43.2°F6.2°C 81% 8.0 mph WNW12.9 kmh WNW 17.0 mph27.4 kmh 29.80 in1009.1 mb 0.00 in0.0 mm 0.00 in0.0 mm 0.67 in17.0 mm
11:25 PM 48.7°F9.3°C 43.1°F6.2°C 81% 5.0 mph NW8.0 kmh NW 12.0 mph19.3 kmh 29.80 in1009.1 mb 0.00 in0.0 mm 0.00 in0.0 mm 0.67 in17.0 mm
11:30 PM 48.5°F9.2°C 43.3°F6.3°C 82% 7.0 mph SW11.3 kmh SW 12.0 mph19.3 kmh 29.81 in1009.5 mb 0.00 in0.0 mm 0.00 in0.0 mm 0.67 in17.0 mm
11:35 PM 48.4°F9.1°C 43.2°F6.2°C 82% 7.0 mph WSW11.3 kmh WSW 11.0 mph17.7 kmh 29.81 in1009.5 mb 0.00 in0.0 mm 0.00 in0.0 mm 0.67 in17.0 mm
11:40 PM 48.3°F9.1°C 43.1°F6.2°C 82% 7.0 mph WSW11.3 kmh WSW 17.0 mph27.4 kmh 29.81 in1009.5 mb 0.00 in0.0 mm 0.00 in0.0 mm 0.67 in17.0 mm
11:45 PM 48.2°F9.0°C 43.0°F6.1°C 82% 5.0 mph SW8.0 kmh SW 9.0 mph14.5 kmh 29.82 in1009.8 mb 0.00 in0.0 mm 0.00 in0.0 mm 0.67 in17.0 mm
11:50 PM 48.1°F8.9°C 42.9°F6.1°C 82% 4.0 mph WNW6.4 kmh WNW 14.0 mph22.5 kmh 29.82 in1009.8 mb 0.00 in0.0 mm 0.00 in0.0 mm 0.67 in17.0 mm
11:54 PM 48.0°F8.9°C 42.8°F6.0°C 82% 8.0 mph WNW12.9 kmh WNW 16.0 mph25.7 kmh 29.83 in1010.2 mb 0.00 in0.0 mm 0.00 in0.0 mm 0.67 in17.0 mm